Latest Weather Observations for Edenhope

IDV60801

Issued at 8:05 am EST Saturday 30 August 2014 (issued every 30 minutes, with the page automatically refreshed every 10 minutes)

About weather observations | Map of weather stations | Latest weather observations for VIC | Other Formats
Station Details ID: 079099 Name: EDENHOPE AIRPORT Lat: -37.02 Lon: 141.27 Height: 155.0 m
Data from the previous 72 hours. | See also: Recent months at Edenhope
Date/Time
EST
Temp
°C
App
Temp
°C
Dew
Point
Rel
Hum
%
Delta-T
°C
Wind Press
QNH
hPa
Press
MSL
hPa
Rain
since 9 am
mm
Dir
 
Spd
km/h
Gust
km/h
Spd
kts
Gust
kts
30/08:00am 7.8 5.1 5.6 86 1.0 NE 9 19 5 10 - - 0.0
30/07:30am 6.6 4.7 4.9 89 0.7 NE 4 7 2 4 - - 0.0
30/07:00am 6.3 3.4 4.8 90 0.7 ENE 9 13 5 7 - - 0.0
30/06:30am 5.9 3.4 4.5 91 0.6 ENE 7 9 4 5 - - 0.0
30/06:00am 6.7 4.3 5.2 90 0.7 ENE 7 13 4 7 - - 0.0
30/05:30am 7.0 4.3 5.6 91 0.6 NE 9 13 5 7 - - 0.0
30/05:00am 7.4 5.2 6.2 92 0.5 NNE 7 13 4 7 - - 0.0
30/04:30am 6.4 4.3 5.8 96 0.3 NNE 6 7 3 4 - - 0.0
30/04:00am 4.9 2.4 4.0 94 0.4 NE 6 7 3 4 - - 0.0
30/03:30am 4.8 2.3 3.9 94 0.4 ENE 6 7 3 4 - - 0.0
30/03:00am 6.1 3.9 5.4 95 0.3 ENE 6 6 3 3 - - 0.0
30/02:30am 6.0 4.5 5.1 94 0.4 NE 2 6 1 3 - - 0.0
30/02:00am 6.9 4.8 5.8 93 0.5 ENE 6 7 3 4 - - 0.0
30/01:30am 7.3 5.0 5.9 91 0.6 E 7 9 4 5 - - 0.0
30/01:00am 8.1 6.0 6.7 91 0.7 E 7 9 4 5 - - 0.0
30/12:30am 7.5 5.3 5.3 86 1.0 E 6 6 3 3 - - 0.0
30/12:00am 8.7 7.2 6.8 88 0.9 E 4 6 2 3 - - 0.0
 
Date/Time
EST
Temp
°C
App
Temp
°C
Dew
Point
Rel
Hum
%
Delta-T
°C
Wind Press
QNH
hPa
Press
MSL
hPa
Rain
since 9 am
mm
Dir
 
Spd
km/h
Gust
km/h
Spd
kts
Gust
kts
29/11:30pm 9.1 8.3 6.7 85 1.1 ESE 0 0 0 0 - - 0.0
29/11:00pm 9.9 7.8 6.8 81 1.5 SE 7 9 4 5 - - 0.0
29/10:30pm 10.2 8.2 7.1 81 1.5 ESE 7 9 4 5 - - 0.0
29/10:00pm 9.5 7.6 6.8 83 1.3 ESE 6 7 3 4 - - 0.0
29/09:30pm 10.5 9.5 7.2 80 1.6 SE 2 2 1 1 - - 0.0
29/09:00pm 11.9 10.5 7.4 74 2.2 S 4 4 2 2 - - 0.0
29/08:30pm 11.7 10.8 7.6 76 2.0 S 2 4 1 2 - - 0.0
29/08:00pm 12.9 11.6 7.8 71 2.5 S 4 4 2 2 - - 0.0
29/07:30pm 13.5 12.6 9.2 75 2.2 S 4 4 2 2 - - 0.0
29/07:00pm 14.2 13.2 8.8 70 2.8 SSE 4 6 2 3 - - 0.0
29/06:30pm 15.7 15.0 8.4 62 3.7 SSW 2 4 1 2 - - 0.0
29/06:00pm 18.5 18.0 9.3 55 4.9 WSW 2 2 1 1 - - 0.0
29/05:30pm 19.7 18.9 9.6 52 5.4 WSW 4 6 2 3 - - 0.0
29/05:00pm 20.6 19.5 8.6 46 6.3 W 4 7 2 4 - - 0.0
29/04:30pm 21.1 19.6 8.4 44 6.7 SW 6 9 3 5 - - 0.0
29/04:00pm 21.2 19.4 8.1 43 6.9 WSW 7 11 4 6 - - 0.0
29/03:30pm 21.6 19.5 5.9 36 7.9 SSW 6 11 3 6 - - 0.0
29/03:00pm 21.4 19.2 5.3 35 8.0 S 6 9 3 5 - - 0.0
29/02:30pm 21.1 18.9 5.1 35 7.9 SSW 6 11 3 6 - - 0.0
29/02:00pm 21.0 19.3 5.8 37 7.6 WNW 4 7 2 4 - - 0.0
29/01:30pm 20.3 18.8 8.3 46 6.3 WSW 6 11 3 6 - - 0.0
29/01:00pm 19.7 17.9 8.1 47 6.0 W 7 11 4 6 - - 0.0
29/12:30pm 20.4 18.9 5.2 37 7.5 SSE 2 6 1 3 - - 0.0
29/12:00pm 19.0 17.7 7.8 48 5.8 SSW 4 7 2 4 - - 0.0
29/11:30am 18.3 17.3 8.8 54 5.0 ESE 4 9 2 5 - - 0.0
29/11:00am 18.2 17.5 8.7 54 5.0 ENE 2 6 1 3 - - 0.0
29/10:30am 16.6 15.7 9.3 62 3.8 W 4 7 2 4 - - 0.0
29/10:00am 15.0 14.7 10.0 72 2.6 WNW 2 4 1 2 - - 0.0
29/09:30am 13.9 14.2 10.9 82 1.6 CALM 0 2 0 1 - - 0.0
29/09:00am 11.8 11.1 10.2 90 0.8 ENE 4 6 2 3 - - 0.0
29/08:30am 8.8 7.7 8.5 98 0.1 E 4 6 2 3 - - 0.0
29/08:00am 5.8 4.1 5.7 99 0.0 E 4 6 2 3 - - 0.0
29/07:30am 3.5 0.9 3.2 98 0.1 E 6 7 3 4 - - 0.0
29/07:00am 3.5 0.9 3.2 98 0.1 E 6 7 3 4 - - 0.0
29/06:30am 3.1 0.8 2.8 98 0.1 E 4 6 2 3 - - 0.0
29/06:00am 3.4 1.2 3.1 98 0.1 E 4 6 2 3 - - 0.0
29/05:30am 4.0 1.9 3.7 98 0.1 ENE 4 4 2 2 - - 0.0
29/05:00am 4.3 2.6 4.0 98 0.1 ENE 2 4 1 2 - - 0.0
29/04:30am 3.9 1.7 3.5 97 0.2 E 4 4 2 2 - - 0.0
29/04:00am 3.7 1.1 3.3 97 0.2 E 6 6 3 3 - - 0.0
29/03:30am 4.8 2.8 4.5 98 0.1 E 4 4 2 2 - - 0.0
29/03:00am 4.5 2.4 3.9 96 0.3 ENE 4 6 2 3 - - 0.0
29/02:30am 6.0 4.6 5.6 97 0.2 E 2 4 1 2 - - 0.0
29/02:00am 6.0 4.2 5.4 96 0.3 E 4 6 2 3 - - 0.0
29/01:30am 6.8 5.2 6.2 96 0.3 E 4 4 2 2 - - 0.0
29/01:00am 7.1 5.5 6.2 94 0.4 E 4 6 2 3 - - 0.0
29/12:30am 7.8 5.9 6.9 94 0.4 ESE 6 7 3 4 - - 0.0
29/12:00am 8.4 7.1 7.5 94 0.4 SE 4 6 2 3 - - 0.0
 
Date/Time
EST
Temp
°C
App
Temp
°C
Dew
Point
Rel
Hum
%
Delta-T
°C
Wind Press
QNH
hPa
Press
MSL
hPa
Rain
since 9 am
mm
Dir
 
Spd
km/h
Gust
km/h
Spd
kts
Gust
kts
28/11:30pm 9.4 8.2 8.0 91 0.7 SE 4 4 2 2 - - 0.0
28/11:00pm 10.6 9.5 8.4 86 1.1 SSE 4 4 2 2 - - 0.0
28/10:30pm 11.2 9.7 8.4 83 1.4 SE 6 7 3 4 - - 0.0
28/10:00pm 11.9 10.2 8.4 79 1.7 SE 7 9 4 5 - - 0.0
28/09:30pm 11.8 10.2 8.1 78 1.8 SE 6 9 3 5 - - 0.0
28/09:00pm 11.8 10.2 8.8 82 1.5 S 7 11 4 6 - - 0.0
28/08:30pm 12.1 10.5 8.9 81 1.6 S 7 11 4 6 - - 0.0
28/08:00pm 12.4 12.2 9.1 80 1.7 CALM 0 0 0 0 - - 0.0
28/07:30pm 12.1 11.7 8.4 78 1.8 CALM 0 0 0 0 - - 0.0
28/07:00pm 13.6 13.5 9.3 75 2.2 CALM 0 0 0 0 - - 0.0
28/06:30pm 15.5 15.4 9.4 67 3.2 CALM 0 2 0 1 - - 0.0
28/06:00pm 17.4 16.6 9.8 61 4.0 W 4 4 2 2 - - 0.0
28/05:30pm 18.9 18.2 10.2 57 4.7 WSW 4 7 2 4 - - 0.0
28/05:00pm 19.4 17.9 9.0 51 5.5 WSW 7 13 4 7 - - 0.0
28/04:30pm 19.8 17.5 9.1 50 5.7 WSW 11 15 6 8 - - 0.0
28/04:00pm 20.2 18.0 9.5 50 5.7 WSW 11 19 6 10 - - 0.0
28/03:30pm 20.4 18.3 9.9 51 5.7 W 11 17 6 9 - - 0.0
28/03:00pm 20.6 19.0 10.1 51 5.7 WNW 9 15 5 8 - - 0.0
28/02:30pm 20.2 18.5 9.7 51 5.7 WNW 9 15 5 8 - - 0.0
28/02:00pm 20.0 18.0 8.7 48 6.0 WNW 9 13 5 7 - - 0.0
28/01:30pm 19.6 17.7 9.2 51 5.5 WNW 9 17 5 9 - - 0.0
28/01:00pm 19.1 16.7 8.7 51 5.5 WNW 11 17 6 9 - - 0.0
28/12:30pm 19.0 17.1 8.9 52 5.3 WNW 9 15 5 8 - - 0.0
28/12:00pm 18.6 16.2 8.8 53 5.1 WNW 11 15 6 8 - - 0.0
28/11:30am 18.1 16.5 8.9 55 4.8 NW 7 13 4 7 - - 0.0
28/11:00am 17.6 15.6 8.5 55 4.7 NNW 9 13 5 7 - - 0.0
28/10:30am 17.0 14.9 8.2 56 4.5 NNW 9 13 5 7 - - 0.0
28/10:00am 16.0 14.1 9.2 64 3.5 N 9 13 5 7 - - 0.0
28/09:30am 13.9 11.8 8.1 68 2.9 N 9 13 5 7 - - 0.0
28/09:00am 12.4 11.4 8.7 78 1.9 NE 4 6 2 3 - - 0.0
28/08:30am 10.0 9.3 8.6 91 0.7 ENE 2 4 1 2 - - 0.0
28/08:00am 7.3 5.8 6.6 95 0.3 ENE 4 6 2 3 - - 0.0
28/07:30am 6.3 4.6 6.0 98 0.1 E 4 6 2 3 - - 0.0
28/07:00am 4.9 2.9 4.3 96 0.3 E 4 6 2 3 - - 0.0
28/06:30am 5.7 3.3 5.1 96 0.3 ENE 7 9 4 5 - - 0.0
28/06:00am 5.8 3.4 5.4 97 0.2 ENE 7 9 4 5 - - 0.0
28/05:30am 5.3 2.8 4.9 97 0.2 E 7 7 4 4 - - 0.0
28/05:00am 6.0 3.9 5.6 97 0.2 E 6 6 3 3 - - 0.0
28/04:30am 5.9 3.6 5.5 97 0.2 E 7 9 4 5 - - 0.0
28/04:00am 5.5 3.1 5.1 97 0.2 E 7 9 4 5 - - 0.0
28/03:30am 5.5 4.0 4.9 96 0.3 E 2 4 1 2 - - 0.0
28/03:00am 6.1 3.9 5.4 95 0.3 E 6 6 3 3 - - 0.0
28/02:30am 7.0 5.0 6.1 94 0.4 E 6 7 3 4 - - 0.0
28/02:00am 7.7 5.8 6.5 92 0.6 ESE 6 7 3 4 - - 0.0
28/01:30am 8.2 6.1 6.8 91 0.7 E 7 9 4 5 - - 0.0
28/01:00am 8.3 6.4 6.9 91 0.7 ESE 6 7 3 4 - - 0.0
28/12:30am 8.7 6.8 6.8 88 0.9 ESE 6 7 3 4 - - 0.0
28/12:00am 8.6 6.7 6.6 87 0.9 SE 6 7 3 4 - - 0.0
 
Date/Time
EST
Temp
°C
App
Temp
°C
Dew
Point
Rel
Hum
%
Delta-T
°C
Wind Press
QNH
hPa
Press
MSL
hPa
Rain
since 9 am
mm
Dir
 
Spd
km/h
Gust
km/h
Spd
kts
Gust
kts
27/11:30pm 9.4 7.4 7.2 86 1.0 SE 7 9 4 5 - - 0.0
27/11:00pm 9.5 7.5 6.9 84 1.2 SE 7 9 4 5 - - 0.0
27/10:30pm 10.1 8.0 6.8 80 1.6 SE 7 9 4 5 - - 0.0
27/10:00pm 10.3 8.2 6.5 77 1.8 S 7 7 4 4 - - 0.0
27/09:30pm 10.4 8.9 6.9 79 1.7 S 4 7 2 4 - - 0.0
27/09:00pm 9.8 8.2 6.3 79 1.6 S 4 6 2 3 - - 0.0
27/08:30pm 10.0 8.7 6.2 77 1.8 SSW 2 4 1 2 - - 0.0
27/08:00pm 10.9 9.4 6.6 75 2.0 SSW 4 4 2 2 - - 0.0
27/07:30pm 10.7 8.9 7.0 78 1.8 SSW 6 6 3 3 - - 0.0
27/07:00pm 12.5 11.8 7.0 69 2.7 CALM 0 0 0 0 - - 0.0
27/06:30pm 13.8 13.1 7.1 64 3.3 CALM 0 0 0 0 - - 0.0
27/06:00pm 16.1 15.0 7.1 55 4.5 W 2 2 1 1 - - 0.0
27/05:30pm 17.7 16.7 8.8 56 4.6 W 4 4 2 2 - - 0.0
27/05:00pm 18.4 16.4 7.2 48 5.7 WSW 7 11 4 6 - - 0.0
27/04:30pm 19.1 17.2 6.6 44 6.3 W 6 9 3 5 - - 0.0
27/04:00pm 19.2 16.9 7.3 46 6.1 WSW 9 13 5 7 - - 0.0
27/03:30pm 19.2 17.1 6.7 44 6.3 W 7 11 4 6 - - 0.0
27/03:00pm 19.3 17.6 7.7 47 6.0 W 6 13 3 7 - - 0.0
27/02:30pm 19.2 17.2 7.0 45 6.2 W 7 15 4 8 - - 0.0
27/02:00pm 19.1 16.8 7.5 47 5.9 W 9 15 5 8 - - 0.0
27/01:30pm 18.8 17.0 7.9 49 5.6 W 7 15 4 8 - - 0.0
27/01:00pm 18.3 15.6 7.4 49 5.5 W 11 15 6 8 - - 0.0
27/12:30pm 18.7 16.6 8.4 51 5.4 W 9 19 5 10 - - 0.0
27/12:00pm 18.1 16.2 7.5 50 5.4 WNW 7 11 4 6 - - 0.0
27/11:30am 17.1 15.6 8.3 56 4.5 NW 6 11 3 6 - - 0.0
27/11:00am 16.5 14.7 8.0 57 4.3 WNW 7 11 4 6 - - 0.0
27/10:30am 15.3 13.8 8.5 64 3.5 W 6 9 3 5 - - 0.0
27/10:00am 15.4 14.3 8.6 64 3.5 NNE 4 7 2 4 - - 0.0
27/09:30am 13.5 13.4 9.6 77 2.0 CALM 0 0 0 0 - - 0.0
27/09:00am 11.4 10.8 9.0 85 1.2 NE 2 4 1 2 - - 0.0
27/08:30am 8.3 6.4 7.7 96 0.3 ENE 7 11 4 6 - - 0.0

Other Formats:

Comma delimited format used in spreadsheet applications
http://www.bom.gov.au/fwo/IDV60801/IDV60801.95832.axf

JavaScript Object Notation format (JSON) in row-major order
http://www.bom.gov.au/fwo/IDV60801/IDV60801.95832.json